createdAt,value
2022-10-14T00:00:24.637Z,16.70
2022-10-14T00:02:55.494Z,14.30
2022-10-14T00:05:26.119Z,21.10
2022-10-14T00:07:57.010Z,13.90
2022-10-14T00:10:28.363Z,19.80
2022-10-14T00:12:58.991Z,16.20
2022-10-14T00:15:30.505Z,17.70
2022-10-14T00:18:01.269Z,16.00
2022-10-14T00:20:31.893Z,15.40
2022-10-14T00:23:02.841Z,15.20
2022-10-14T00:25:38.157Z,17.50
2022-10-14T00:28:08.774Z,18.00
2022-10-14T00:30:39.433Z,18.70
2022-10-14T00:33:10.108Z,16.80
2022-10-14T00:35:40.853Z,16.90
2022-10-14T00:38:11.522Z,18.10
2022-10-14T00:40:42.279Z,14.00
2022-10-14T00:43:15.289Z,15.50
2022-10-14T00:45:47.123Z,19.40
2022-10-14T00:50:55.087Z,14.80
2022-10-14T00:53:25.947Z,14.40
2022-10-14T00:55:56.712Z,15.90
2022-10-14T00:58:27.600Z,17.00
2022-10-14T01:00:58.515Z,18.60
2022-10-14T01:03:29.324Z,14.60
2022-10-14T01:06:09.327Z,14.50
2022-10-14T01:08:46.001Z,16.20
2022-10-14T01:11:24.427Z,14.40
2022-10-14T01:14:04.543Z,19.60
2022-10-14T01:16:41.774Z,15.90
2022-10-14T01:19:33.887Z,18.00
2022-10-14T01:22:16.764Z,15.30
2022-10-14T01:25:03.799Z,12.80
2022-10-14T01:27:57.773Z,16.20
2022-10-14T01:30:35.249Z,20.70
2022-10-14T01:33:15.507Z,16.70
2022-10-14T01:35:57.945Z,22.00
2022-10-14T01:38:32.521Z,18.80
2022-10-14T01:41:12.537Z,17.30
2022-10-14T01:43:45.900Z,18.50
2022-10-14T01:46:18.375Z,16.70
2022-10-14T01:48:53.831Z,15.00
2022-10-14T01:51:30.762Z,17.70
2022-10-14T01:54:07.462Z,21.00
2022-10-14T01:56:40.661Z,15.80
2022-10-14T01:59:15.319Z,17.90
2022-10-14T02:01:46.013Z,19.30
2022-10-14T02:04:22.332Z,20.40
2022-10-14T02:07:01.630Z,17.80
2022-10-14T02:09:44.050Z,16.90
2022-10-14T02:12:29.005Z,23.50
2022-10-14T02:15:10.514Z,18.50
2022-10-14T02:17:51.600Z,25.90
2022-10-14T02:20:27.579Z,21.10
2022-10-14T02:23:03.981Z,17.80
2022-10-14T02:25:39.299Z,21.70
2022-10-14T02:28:12.660Z,20.20
2022-10-14T02:30:46.254Z,15.90
2022-10-14T02:33:24.495Z,22.20
2022-10-14T02:35:57.229Z,19.40
2022-10-14T02:38:29.750Z,19.20
2022-10-14T02:43:33.044Z,19.90
2022-10-14T02:46:06.175Z,16.90
2022-10-14T02:48:37.154Z,14.10
2022-10-14T02:51:08.211Z,14.20
2022-10-14T02:53:40.543Z,22.10
2022-10-14T02:56:11.886Z,20.00
2022-10-14T02:58:42.690Z,20.40
2022-10-14T03:01:13.420Z,21.30
2022-10-14T03:03:44.137Z,22.20
2022-10-14T03:06:15.393Z,18.90
2022-10-14T03:08:46.293Z,20.00
2022-10-14T03:11:17.754Z,15.70
2022-10-14T03:13:48.477Z,18.80
2022-10-14T03:16:19.266Z,20.70
2022-10-14T03:18:49.932Z,18.10
2022-10-14T03:21:28.395Z,20.40
2022-10-14T03:23:59.075Z,20.20
2022-10-14T03:26:35.007Z,19.50
2022-10-14T03:29:05.722Z,20.10
2022-10-14T03:31:55.186Z,20.70
2022-10-14T03:34:30.365Z,17.30
2022-10-14T03:37:09.048Z,21.90
2022-10-14T03:39:45.002Z,21.20
2022-10-14T03:42:16.705Z,21.10
2022-10-14T03:44:49.739Z,23.50
2022-10-14T03:47:34.377Z,17.50
2022-10-14T03:50:05.744Z,21.50
2022-10-14T03:52:48.481Z,19.70
2022-10-14T03:55:26.597Z,24.00
2022-10-14T03:57:57.461Z,17.10
2022-10-14T04:00:28.185Z,19.90
2022-10-14T04:03:07.593Z,21.50
2022-10-14T04:05:42.297Z,21.50
2022-10-14T04:08:19.681Z,21.40
2022-10-14T04:10:56.872Z,18.70
2022-10-14T04:15:57.836Z,21.80
2022-10-14T04:18:39.470Z,22.30
2022-10-14T04:21:14.316Z,20.40
2022-10-14T04:23:46.371Z,23.30
2022-10-14T04:26:19.702Z,25.20
2022-10-14T04:28:50.542Z,21.90
2022-10-14T04:31:33.345Z,20.50
2022-10-14T04:34:05.712Z,16.80
2022-10-14T04:36:40.455Z,20.40
2022-10-14T04:39:23.837Z,23.00
2022-10-14T04:41:54.588Z,19.90
2022-10-14T04:44:25.569Z,19.90
2022-10-14T04:46:58.212Z,22.20
2022-10-14T04:49:29.171Z,18.40
2022-10-14T04:52:20.681Z,18.30
2022-10-14T04:54:57.028Z,19.30
2022-10-14T04:57:39.618Z,18.60
2022-10-14T05:00:13.188Z,27.60
2022-10-14T05:02:46.598Z,18.70
2022-10-14T05:05:18.179Z,22.30
2022-10-14T05:07:51.221Z,23.20
2022-10-14T05:10:28.002Z,18.60
2022-10-14T05:12:59.336Z,20.60
2022-10-14T05:15:32.209Z,22.80
2022-10-14T05:18:08.952Z,20.50
2022-10-14T05:21:00.329Z,20.30
2022-10-14T05:23:40.708Z,27.90
2022-10-14T05:26:11.603Z,23.50
2022-10-14T05:28:43.754Z,26.30
2022-10-14T05:31:14.663Z,18.40
2022-10-14T05:33:54.095Z,14.40
2022-10-14T05:36:25.043Z,20.60
2022-10-14T05:38:58.772Z,22.50
2022-10-14T05:41:31.111Z,24.90
2022-10-14T05:44:02.841Z,24.10
2022-10-14T05:46:33.833Z,22.80
2022-10-14T05:49:06.185Z,24.50
2022-10-14T05:51:39.407Z,24.00
2022-10-14T05:54:18.385Z,25.50
2022-10-14T05:56:49.161Z,28.30
2022-10-14T05:59:20.091Z,28.80
2022-10-14T06:01:51.245Z,24.70
2022-10-14T06:04:23.209Z,37.70
2022-10-14T06:06:54.261Z,25.90
2022-10-14T06:09:25.114Z,30.20
2022-10-14T06:11:56.785Z,26.40
2022-10-14T06:14:27.655Z,30.90
2022-10-14T06:16:58.431Z,26.50
2022-10-14T06:19:29.188Z,24.70
2022-10-14T06:22:00.008Z,29.00
2022-10-14T06:24:30.880Z,24.70
2022-10-14T06:27:01.479Z,32.40
2022-10-14T06:29:37.941Z,27.50
2022-10-14T06:32:10.742Z,31.00
2022-10-14T06:34:41.531Z,28.80
2022-10-14T06:37:12.184Z,31.20
2022-10-14T06:39:45.195Z,26.30
2022-10-14T06:42:15.888Z,28.90
2022-10-14T06:44:46.513Z,29.20
2022-10-14T06:47:17.464Z,30.50
2022-10-14T06:49:48.382Z,26.10
2022-10-14T06:52:19.216Z,28.60
2022-10-14T06:54:50.062Z,28.20
2022-10-14T06:57:20.730Z,28.90
2022-10-14T06:59:51.505Z,26.50
2022-10-14T07:02:22.334Z,28.40
2022-10-14T07:04:53.180Z,28.70
2022-10-14T07:07:23.830Z,32.90
2022-10-14T07:09:54.660Z,27.00
2022-10-14T07:12:25.642Z,29.50
2022-10-14T07:14:57.088Z,30.10
2022-10-14T07:17:27.872Z,32.50
2022-10-14T07:19:58.719Z,29.80
2022-10-14T07:22:29.669Z,30.50
2022-10-14T07:25:00.371Z,25.80
2022-10-14T07:27:31.009Z,27.00
2022-10-14T07:30:02.614Z,26.40
2022-10-14T07:32:36.828Z,29.10
2022-10-14T07:35:09.192Z,35.40
2022-10-14T07:37:39.978Z,34.90
2022-10-14T07:40:13.356Z,31.60
2022-10-14T07:42:44.061Z,25.60
2022-10-14T07:45:17.673Z,30.30
2022-10-14T07:47:51.111Z,30.20
2022-10-14T07:50:22.527Z,27.20
2022-10-14T07:52:56.600Z,30.00
2022-10-14T07:55:29.816Z,33.20
2022-10-14T07:58:00.538Z,28.80
2022-10-14T08:00:31.367Z,34.40
2022-10-14T08:03:02.101Z,23.70
2022-10-14T08:05:38.014Z,27.30
2022-10-14T08:08:10.893Z,31.80
2022-10-14T08:10:41.898Z,26.70
2022-10-14T08:13:12.986Z,34.70
2022-10-14T08:15:43.710Z,34.00
2022-10-14T08:18:14.406Z,36.20
2022-10-14T08:20:45.337Z,31.00
2022-10-14T08:23:18.975Z,24.30
2022-10-14T08:25:51.720Z,26.10
2022-10-14T08:28:22.468Z,27.70
2022-10-14T08:30:53.444Z,30.90
2022-10-14T08:33:24.272Z,33.20
2022-10-14T08:35:54.903Z,34.70
2022-10-14T08:38:26.540Z,35.30
2022-10-14T08:41:08.535Z,32.40
2022-10-14T08:43:42.631Z,26.60
2022-10-14T08:46:21.181Z,24.10
2022-10-14T08:51:24.384Z,25.20
2022-10-14T08:54:03.812Z,33.50
2022-10-14T08:56:36.302Z,30.80
2022-10-14T09:01:45.504Z,25.90
2022-10-14T09:04:17.828Z,28.60
2022-10-14T09:06:51.275Z,25.70
2022-10-14T09:09:27.579Z,25.90
2022-10-14T09:12:01.196Z,24.70
2022-10-14T09:14:36.365Z,26.60
2022-10-14T09:17:14.570Z,30.10
2022-10-14T09:19:51.657Z,31.20
2022-10-14T09:22:22.920Z,37.50
2022-10-14T09:24:53.858Z,30.30
2022-10-14T09:27:30.346Z,25.80
2022-10-14T09:30:02.909Z,25.50
2022-10-14T09:32:37.620Z,23.10
2022-10-14T09:35:17.884Z,23.80
2022-10-14T09:37:48.630Z,26.10
2022-10-14T09:40:23.588Z,32.70
2022-10-14T09:42:59.335Z,29.50
2022-10-14T09:45:31.712Z,33.90
2022-10-14T09:50:40.696Z,29.60
2022-10-14T09:53:28.941Z,27.30
2022-10-14T09:56:01.621Z,29.80
2022-10-14T09:58:40.030Z,23.50
2022-10-14T10:01:17.739Z,25.90
2022-10-14T10:03:49.789Z,26.60
2022-10-14T10:06:23.369Z,26.40
2022-10-14T10:09:01.327Z,26.10
2022-10-14T10:11:37.445Z,31.00
2022-10-14T10:14:21.904Z,24.90
2022-10-14T10:19:32.904Z,22.10
2022-10-14T10:25:26.120Z,20.20
2022-10-14T10:28:00.272Z,24.70
2022-10-14T10:30:36.982Z,19.90
2022-10-14T10:33:23.282Z,18.80
2022-10-14T10:36:09.015Z,13.70
2022-10-14T10:38:46.609Z,16.40
2022-10-14T10:41:29.570Z,17.70
2022-10-14T10:44:13.240Z,16.40
2022-10-14T10:47:05.692Z,14.20
2022-10-14T10:49:53.776Z,15.10
2022-10-14T10:52:36.750Z,14.80
2022-10-14T10:55:18.271Z,15.80
2022-10-14T10:58:02.611Z,17.30
2022-10-14T11:00:45.149Z,11.70
2022-10-14T11:03:34.347Z,11.60
2022-10-14T11:06:10.499Z,14.70
2022-10-14T11:09:37.839Z,12.60
2022-10-14T11:12:15.865Z,16.40
2022-10-14T11:15:04.097Z,17.90
2022-10-14T11:17:43.998Z,13.60
2022-10-14T11:20:25.101Z,14.30
2022-10-14T11:23:08.450Z,12.40
2022-10-14T11:25:49.404Z,11.70
2022-10-14T11:28:29.296Z,12.60
2022-10-14T11:31:07.814Z,15.80
2022-10-14T11:33:58.281Z,12.70
2022-10-14T11:36:38.238Z,13.20
2022-10-14T11:39:25.022Z,15.60
2022-10-14T11:42:05.404Z,14.90
2022-10-14T11:44:39.266Z,13.30
2022-10-14T11:47:15.312Z,14.40
2022-10-14T11:49:50.305Z,16.90
2022-10-14T11:52:27.587Z,6.40
2022-10-14T11:55:04.062Z,3.40
2022-10-14T11:57:39.151Z,4.90
2022-10-14T12:00:33.638Z,3.00
2022-10-14T12:03:13.778Z,3.60
2022-10-14T12:05:52.497Z,4.50
2022-10-14T12:08:30.390Z,2.10
2022-10-14T12:11:10.195Z,3.50
2022-10-14T12:13:44.560Z,2.10
2022-10-14T12:16:18.988Z,2.90
2022-10-14T12:18:53.637Z,2.90
2022-10-14T12:21:34.289Z,2.30
2022-10-14T12:24:10.069Z,7.40
2022-10-14T12:26:54.792Z,3.10
2022-10-14T12:29:28.923Z,2.20
2022-10-14T12:32:22.545Z,3.60
2022-10-14T12:34:55.465Z,2.60
2022-10-14T12:37:52.725Z,2.60
2022-10-14T12:40:31.507Z,4.20
2022-10-14T12:43:17.936Z,3.50
2022-10-14T12:45:59.544Z,2.90
2022-10-14T12:48:34.942Z,2.50
2022-10-14T12:51:15.441Z,3.00
2022-10-14T12:53:54.860Z,3.40
2022-10-14T12:56:39.297Z,7.70
2022-10-14T12:59:21.812Z,8.70
2022-10-14T13:02:01.272Z,6.60
2022-10-14T13:04:33.292Z,6.70
2022-10-14T13:07:47.570Z,5.10
2022-10-14T13:13:01.549Z,9.50
2022-10-14T13:15:49.814Z,9.80
2022-10-14T13:18:50.317Z,10.90
2022-10-14T13:21:55.021Z,12.60
2022-10-14T13:24:29.354Z,11.70
2022-10-14T13:27:13.816Z,11.00
2022-10-14T13:30:03.319Z,10.20
2022-10-14T13:32:42.285Z,10.60
2022-10-14T13:35:23.443Z,10.90
2022-10-14T13:38:02.419Z,8.60
2022-10-14T13:40:35.666Z,12.90
2022-10-14T13:43:16.518Z,9.40
2022-10-14T13:45:51.871Z,9.90
2022-10-14T13:48:26.224Z,11.60
2022-10-14T13:51:35.940Z,10.50
2022-10-14T13:54:18.997Z,10.30
2022-10-14T13:57:38.176Z,20.10
2022-10-14T14:02:50.380Z,17.70
2022-10-14T14:05:33.185Z,16.80
2022-10-14T14:08:34.904Z,27.60
2022-10-14T14:11:17.607Z,20.10
2022-10-14T14:13:59.937Z,19.00
2022-10-14T14:16:35.448Z,23.60
2022-10-14T14:19:09.623Z,19.60
2022-10-14T14:21:41.188Z,20.30
2022-10-14T14:24:26.069Z,20.10
2022-10-14T14:26:57.901Z,24.20
2022-10-14T14:29:32.448Z,21.00
2022-10-14T14:32:07.096Z,29.60
2022-10-14T14:34:40.086Z,24.70
2022-10-14T14:37:40.176Z,25.70
2022-10-14T14:40:17.090Z,25.40
2022-10-14T14:42:50.095Z,27.20
2022-10-14T14:45:25.398Z,24.20
2022-10-14T14:47:58.826Z,23.00
2022-10-14T14:50:33.846Z,22.00
2022-10-14T14:53:08.674Z,18.40
2022-10-14T14:56:01.140Z,23.90
2022-10-14T14:58:36.391Z,25.00
2022-10-14T15:01:18.576Z,27.70
2022-10-14T15:04:12.258Z,28.80
2022-10-14T15:06:51.358Z,27.70
2022-10-14T15:09:36.391Z,30.00
2022-10-14T15:12:16.432Z,26.20
2022-10-14T15:14:49.546Z,23.80
2022-10-14T15:17:30.418Z,22.70
2022-10-14T15:20:22.426Z,22.40
2022-10-14T15:22:53.160Z,22.70
2022-10-14T15:25:30.226Z,20.10
2022-10-14T15:28:02.990Z,19.80
2022-10-14T15:30:36.768Z,17.30
2022-10-14T15:33:18.891Z,29.60
2022-10-14T15:35:58.334Z,27.80
2022-10-14T15:38:32.919Z,18.10
2022-10-14T15:41:06.333Z,17.00
2022-10-14T15:43:39.818Z,25.00
2022-10-14T15:46:33.200Z,18.00
2022-10-14T15:49:06.453Z,17.80
2022-10-14T15:51:36.987Z,19.40
2022-10-14T15:54:10.661Z,20.00
2022-10-14T15:56:41.438Z,22.80
2022-10-14T15:59:12.195Z,21.10
2022-10-14T16:01:45.182Z,28.70
2022-10-14T16:04:22.361Z,22.80
2022-10-14T16:06:54.744Z,18.40
2022-10-14T16:11:58.049Z,20.20
2022-10-14T16:14:29.256Z,25.30
2022-10-14T16:19:36.340Z,21.30
2022-10-14T16:22:10.203Z,17.20
2022-10-14T16:24:42.064Z,17.10
2022-10-14T16:27:13.405Z,17.30
2022-10-14T16:29:44.453Z,20.00
2022-10-14T16:32:16.078Z,23.90
2022-10-14T16:34:46.705Z,19.90
2022-10-14T16:37:17.420Z,23.70
2022-10-14T16:39:49.377Z,18.60
2022-10-14T16:42:20.445Z,18.00
2022-10-14T16:44:51.143Z,19.30
2022-10-14T16:47:23.854Z,20.60
2022-10-14T16:49:57.141Z,23.60
2022-10-14T16:52:27.784Z,22.90
2022-10-14T16:54:58.521Z,19.00
2022-10-14T16:57:30.891Z,24.50
2022-10-14T17:02:31.909Z,24.10
2022-10-14T17:05:02.790Z,27.10
2022-10-14T17:07:33.929Z,24.70
2022-10-14T17:10:05.216Z,22.90
2022-10-14T17:12:36.246Z,20.10
2022-10-14T17:15:08.625Z,23.40
2022-10-14T17:17:40.730Z,24.50
2022-10-14T17:20:12.735Z,24.60
2022-10-14T17:22:43.461Z,23.80
2022-10-14T17:25:14.558Z,30.20
2022-10-14T17:27:45.236Z,36.00
2022-10-14T17:30:16.745Z,30.20
2022-10-14T17:32:47.638Z,28.70
2022-10-14T17:35:18.679Z,29.10
2022-10-14T17:37:50.692Z,25.00
2022-10-14T17:40:21.361Z,25.00
2022-10-14T17:42:52.042Z,23.10
2022-10-14T17:45:22.729Z,27.10
2022-10-14T17:47:54.660Z,27.20
2022-10-14T17:50:26.704Z,24.90
2022-10-14T17:52:59.138Z,26.00
2022-10-14T17:57:59.035Z,21.60
2022-10-14T18:00:29.610Z,22.90
2022-10-14T18:03:00.204Z,22.40
2022-10-14T18:05:31.534Z,21.40
2022-10-14T18:08:02.242Z,17.80
2022-10-14T18:10:33.347Z,23.50
2022-10-14T18:13:04.002Z,30.80
2022-10-14T18:15:36.336Z,18.80
2022-10-14T18:18:08.215Z,20.80
2022-10-14T18:20:39.905Z,21.70
2022-10-14T18:23:12.392Z,20.90
2022-10-14T18:28:15.619Z,17.80
2022-10-14T18:30:46.407Z,17.40
2022-10-14T18:33:17.173Z,15.00
2022-10-14T18:35:50.204Z,19.00
2022-10-14T18:38:20.997Z,17.70
2022-10-14T18:43:35.993Z,19.00
2022-10-14T18:46:09.496Z,15.90
2022-10-14T18:48:40.576Z,15.70
2022-10-14T18:51:12.641Z,13.60
2022-10-14T18:53:45.722Z,12.40
2022-10-14T18:56:19.815Z,13.80
2022-10-14T18:58:55.167Z,16.50
2022-10-14T19:01:27.421Z,14.00
2022-10-14T19:03:58.693Z,16.30
2022-10-14T19:06:29.801Z,15.70
2022-10-14T19:09:01.996Z,16.70
2022-10-14T19:11:35.444Z,12.50
2022-10-14T19:14:06.610Z,13.70
2022-10-14T19:16:39.096Z,13.80
2022-10-14T19:19:15.196Z,11.90
2022-10-14T19:21:46.863Z,15.20
2022-10-14T19:24:18.793Z,16.00
2022-10-14T19:26:50.195Z,14.90
2022-10-14T19:29:21.173Z,14.90
2022-10-14T19:31:54.510Z,14.50
2022-10-14T19:34:27.195Z,12.10
2022-10-14T19:37:00.108Z,14.60
2022-10-14T19:39:30.858Z,8.10
2022-10-14T19:42:01.445Z,15.30
2022-10-14T19:47:07.723Z,14.60
2022-10-14T19:49:38.624Z,13.90
2022-10-14T19:52:09.533Z,15.80
2022-10-14T19:54:40.216Z,13.30
2022-10-14T19:57:10.838Z,11.90
2022-10-14T19:59:41.638Z,11.00
2022-10-14T20:02:13.000Z,14.90
2022-10-14T20:04:43.615Z,15.10
2022-10-14T20:07:14.729Z,15.10
2022-10-14T20:09:45.363Z,14.70
2022-10-14T20:12:15.995Z,15.30
2022-10-14T20:14:46.669Z,15.70
2022-10-14T20:17:17.436Z,12.30
2022-10-14T20:19:48.078Z,16.60
2022-10-14T20:22:18.810Z,14.70
2022-10-14T20:24:50.252Z,13.80
2022-10-14T20:27:21.496Z,16.00
2022-10-14T20:29:52.407Z,17.90
2022-10-14T20:32:23.110Z,13.00
2022-10-14T20:34:54.444Z,12.80
2022-10-14T20:37:28.063Z,12.90
2022-10-14T20:39:59.190Z,13.30
2022-10-14T20:42:29.917Z,13.00
2022-10-14T20:45:00.726Z,13.90
2022-10-14T20:47:31.418Z,12.00
2022-10-14T20:50:02.046Z,12.10
2022-10-14T20:52:33.238Z,11.50
2022-10-14T20:55:03.990Z,15.40
2022-10-14T20:57:34.789Z,16.30
2022-10-14T21:00:07.257Z,15.00
2022-10-14T21:05:08.151Z,9.80
2022-10-14T21:07:38.696Z,11.80
2022-10-14T21:10:11.049Z,13.10
2022-10-14T21:12:45.245Z,15.20
2022-10-14T21:15:19.084Z,15.30
2022-10-14T21:17:52.811Z,14.90
2022-10-14T21:20:23.444Z,10.30
2022-10-14T21:22:54.066Z,10.40
2022-10-14T21:25:24.801Z,11.40
2022-10-14T21:27:55.932Z,9.70
2022-10-14T21:30:26.856Z,10.90
2022-10-14T21:32:57.918Z,12.50
2022-10-14T21:35:28.721Z,11.30
2022-10-14T21:37:59.452Z,11.50
2022-10-14T21:40:30.206Z,13.50
2022-10-14T21:43:00.938Z,16.60
2022-10-14T21:45:31.608Z,11.90
2022-10-14T21:48:02.293Z,9.10
2022-10-14T21:50:33.096Z,10.50
2022-10-14T21:53:03.739Z,9.80
2022-10-14T21:55:34.530Z,9.50
2022-10-14T21:58:05.506Z,10.70
2022-10-14T22:00:36.320Z,10.00
2022-10-14T22:03:07.090Z,9.90
2022-10-14T22:05:38.791Z,8.30
2022-10-14T22:08:09.609Z,10.70
2022-10-14T22:10:45.093Z,10.00
2022-10-14T22:13:15.852Z,8.90
2022-10-14T22:15:46.556Z,9.40
2022-10-14T22:18:17.736Z,9.90
2022-10-14T22:20:48.920Z,8.90
2022-10-14T22:23:19.713Z,9.00
2022-10-14T22:25:53.076Z,7.90
2022-10-14T22:28:23.948Z,7.90
2022-10-14T22:30:54.809Z,9.60
2022-10-14T22:33:25.507Z,9.10
2022-10-14T22:36:05.647Z,5.50
2022-10-14T22:38:36.457Z,8.90
2022-10-14T22:41:08.039Z,7.30
2022-10-14T22:43:39.451Z,8.70
2022-10-14T22:46:13.652Z,7.50
2022-10-14T22:48:44.375Z,11.20
2022-10-14T22:51:18.208Z,7.30
2022-10-14T22:53:49.093Z,7.00
2022-10-14T22:56:23.030Z,7.40
2022-10-14T22:58:56.590Z,6.90
2022-10-14T23:01:28.667Z,7.90
2022-10-14T23:04:00.627Z,8.20
2022-10-14T23:06:32.474Z,7.20
2022-10-14T23:09:03.349Z,8.70
2022-10-14T23:11:34.709Z,8.80
2022-10-14T23:14:07.408Z,9.60
2022-10-14T23:16:39.942Z,5.60
2022-10-14T23:21:40.333Z,6.00
2022-10-14T23:24:13.242Z,9.50
2022-10-14T23:26:43.879Z,8.70
2022-10-14T23:29:14.647Z,8.40
2022-10-14T23:31:45.311Z,8.10
2022-10-14T23:34:16.588Z,8.40
2022-10-14T23:36:47.323Z,9.10
2022-10-14T23:39:18.360Z,8.40
2022-10-14T23:41:49.748Z,10.00
2022-10-14T23:44:20.505Z,6.90
2022-10-14T23:46:51.562Z,8.30
2022-10-14T23:49:26.122Z,6.90
2022-10-14T23:51:57.854Z,6.30
2022-10-14T23:54:28.520Z,8.20
2022-10-14T23:56:59.106Z,6.90
2022-10-14T23:59:29.756Z,8.20
